sensor_id;sensor_type;location;lat;lon;timestamp;pressure;altitude;pressure_sealevel;temperature;humidity
57606;BME280;43430;48.204;11.556;2022-12-18T00:02:10;97134.97;;;-6.62;100.00
57606;BME280;43430;48.204;11.556;2022-12-18T00:04:36;97137.19;;;-6.56;100.00
57606;BME280;43430;48.204;11.556;2022-12-18T00:07:01;97130.31;;;-6.56;100.00
57606;BME280;43430;48.204;11.556;2022-12-18T00:09:26;97128.28;;;-6.65;100.00
57606;BME280;43430;48.204;11.556;2022-12-18T00:11:52;97133.22;;;-6.62;100.00
57606;BME280;43430;48.204;11.556;2022-12-18T00:14:17;97127.97;;;-6.75;100.00
57606;BME280;43430;48.204;11.556;2022-12-18T00:16:44;97127.69;;;-6.84;100.00
57606;BME280;43430;48.204;11.556;2022-12-18T00:19:11;97132.88;;;-6.86;100.00
57606;BME280;43430;48.204;11.556;2022-12-18T00:21:45;97131.84;;;-6.98;100.00
57606;BME280;43430;48.204;11.556;2022-12-18T00:24:11;97132.34;;;-7.07;100.00
57606;BME280;43430;48.204;11.556;2022-12-18T00:26:37;97132.25;;;-7.05;100.00
57606;BME280;43430;48.204;11.556;2022-12-18T00:29:12;97136.31;;;-7.01;100.00
57606;BME280;43430;48.204;11.556;2022-12-18T00:31:39;97135.06;;;-7.10;100.00
57606;BME280;43430;48.204;11.556;2022-12-18T00:34:05;97143.41;;;-7.06;100.00
57606;BME280;43430;48.204;11.556;2022-12-18T00:36:33;97156.31;;;-7.08;100.00
57606;BME280;43430;48.204;11.556;2022-12-18T00:39:01;97156.16;;;-7.05;100.00
57606;BME280;43430;48.204;11.556;2022-12-18T00:41:27;97162.44;;;-7.10;100.00
57606;BME280;43430;48.204;11.556;2022-12-18T00:44:13;97169.38;;;-7.12;100.00
57606;BME280;43430;48.204;11.556;2022-12-18T00:46:40;97164.25;;;-7.28;100.00
57606;BME280;43430;48.204;11.556;2022-12-18T00:49:05;97170.53;;;-7.18;100.00
57606;BME280;43430;48.204;11.556;2022-12-18T00:51:31;97174.03;;;-7.19;100.00
57606;BME280;43430;48.204;11.556;2022-12-18T00:53:57;97174.59;;;-7.14;100.00
57606;BME280;43430;48.204;11.556;2022-12-18T00:56:23;97182.28;;;-7.14;100.00
57606;BME280;43430;48.204;11.556;2022-12-18T00:58:49;97174.84;;;-7.19;100.00
57606;BME280;43430;48.204;11.556;2022-12-18T01:01:14;97177.78;;;-7.26;100.00
57606;BME280;43430;48.204;11.556;2022-12-18T01:03:40;97166.34;;;-7.19;100.00
57606;BME280;43430;48.204;11.556;2022-12-18T01:06:06;97168.81;;;-7.18;100.00
57606;BME280;43430;48.204;11.556;2022-12-18T01:08:32;97176.97;;;-7.11;100.00
57606;BME280;43430;48.204;11.556;2022-12-18T01:10:57;97173.59;;;-7.11;100.00
57606;BME280;43430;48.204;11.556;2022-12-18T01:13:23;97169.69;;;-7.03;100.00
57606;BME280;43430;48.204;11.556;2022-12-18T01:15:49;97175.84;;;-7.05;100.00
57606;BME280;43430;48.204;11.556;2022-12-18T01:18:14;97181.84;;;-7.06;100.00
57606;BME280;43430;48.204;11.556;2022-12-18T01:20:40;97185.00;;;-7.01;100.00
57606;BME280;43430;48.204;11.556;2022-12-18T01:23:05;97198.06;;;-7.06;100.00
57606;BME280;43430;48.204;11.556;2022-12-18T01:25:30;97204.59;;;-7.00;100.00
57606;BME280;43430;48.204;11.556;2022-12-18T01:27:56;97206.91;;;-6.96;100.00
57606;BME280;43430;48.204;11.556;2022-12-18T01:30:22;97212.13;;;-6.97;100.00
57606;BME280;43430;48.204;11.556;2022-12-18T01:32:47;97219.81;;;-6.97;100.00
57606;BME280;43430;48.204;11.556;2022-12-18T01:35:12;97217.66;;;-6.89;100.00
57606;BME280;43430;48.204;11.556;2022-12-18T01:37:38;97223.44;;;-6.85;100.00
57606;BME280;43430;48.204;11.556;2022-12-18T01:40:03;97236.19;;;-6.84;100.00
57606;BME280;43430;48.204;11.556;2022-12-18T01:42:29;97234.50;;;-6.85;100.00
57606;BME280;43430;48.204;11.556;2022-12-18T01:50:34;97213.44;;;-6.90;100.00
57606;BME280;43430;48.204;11.556;2022-12-18T01:53:09;97220.97;;;-6.87;100.00
57606;BME280;43430;48.204;11.556;2022-12-18T01:55:55;97230.91;;;-6.81;100.00
57606;BME280;43430;48.204;11.556;2022-12-18T01:58:27;97234.50;;;-6.85;100.00
57606;BME280;43430;48.204;11.556;2022-12-18T02:00:55;97226.34;;;-6.76;100.00
57606;BME280;43430;48.204;11.556;2022-12-18T02:03:21;97221.78;;;-6.71;100.00
57606;BME280;43430;48.204;11.556;2022-12-18T02:05:57;97215.09;;;-6.73;100.00
57606;BME280;43430;48.204;11.556;2022-12-18T02:22:26;97202.94;;;-6.85;100.00
57606;BME280;43430;48.204;11.556;2022-12-18T02:27:30;97204.50;;;-6.83;100.00
57606;BME280;43430;48.204;11.556;2022-12-18T02:29:57;97199.13;;;-6.78;100.00
57606;BME280;43430;48.204;11.556;2022-12-18T02:32:27;97204.25;;;-6.78;100.00
57606;BME280;43430;48.204;11.556;2022-12-18T02:34:56;97196.31;;;-6.74;100.00
57606;BME280;43430;48.204;11.556;2022-12-18T02:37:23;97197.72;;;-6.84;100.00
57606;BME280;43430;48.204;11.556;2022-12-18T02:39:53;97198.81;;;-6.88;100.00
57606;BME280;43430;48.204;11.556;2022-12-18T02:42:20;97198.81;;;-6.88;100.00
57606;BME280;43430;48.204;11.556;2022-12-18T02:44:49;97203.91;;;-6.72;100.00
57606;BME280;43430;48.204;11.556;2022-12-18T02:47:17;97208.38;;;-6.76;100.00
57606;BME280;43430;48.204;11.556;2022-12-18T02:50:59;97207.47;;;-6.75;100.00
57606;BME280;43430;48.204;11.556;2022-12-18T02:53:21;97207.22;;;-6.86;100.00
57606;BME280;43430;48.204;11.556;2022-12-18T02:58:22;97215.69;;;-6.84;100.00
57606;BME280;43430;48.204;11.556;2022-12-18T03:01:01;97216.50;;;-6.83;100.00
57606;BME280;43430;48.204;11.556;2022-12-18T03:03:37;97217.06;;;-6.78;100.00
57606;BME280;43430;48.204;11.556;2022-12-18T03:06:08;97209.19;;;-6.75;100.00
57606;BME280;43430;48.204;11.556;2022-12-18T03:08:39;97195.16;;;-6.84;100.00
57606;BME280;43430;48.204;11.556;2022-12-18T03:11:08;97200.19;;;-6.82;100.00
57606;BME280;43430;48.204;11.556;2022-12-18T03:13:37;97199.53;;;-6.86;100.00
57606;BME280;43430;48.204;11.556;2022-12-18T03:16:07;97197.19;;;-6.75;100.00
57606;BME280;43430;48.204;11.556;2022-12-18T03:18:45;97189.88;;;-6.81;100.00
57606;BME280;43430;48.204;11.556;2022-12-18T03:21:13;97191.09;;;-6.72;100.00
57606;BME280;43430;48.204;11.556;2022-12-18T03:23:44;97193.66;;;-6.72;100.00
57606;BME280;43430;48.204;11.556;2022-12-18T03:26:15;97196.47;;;-6.77;100.00
57606;BME280;43430;48.204;11.556;2022-12-18T03:28:45;97192.94;;;-6.74;100.00
57606;BME280;43430;48.204;11.556;2022-12-18T03:31:14;97197.19;;;-6.75;100.00
57606;BME280;43430;48.204;11.556;2022-12-18T03:33:50;97197.03;;;-6.72;100.00
57606;BME280;43430;48.204;11.556;2022-12-18T03:36:16;97197.47;;;-6.79;100.00
57606;BME280;43430;48.204;11.556;2022-12-18T03:38:42;97212.69;;;-6.76;100.00
57606;BME280;43430;48.204;11.556;2022-12-18T03:46:51;97211.78;;;-6.75;100.00
57606;BME280;43430;48.204;11.556;2022-12-18T03:49:27;97204.56;;;-6.69;100.00
57606;BME280;43430;48.204;11.556;2022-12-18T03:52:15;97202.50;;;-6.62;100.00
57606;BME280;43430;48.204;11.556;2022-12-18T03:54:45;97201.16;;;-6.53;100.00
57606;BME280;43430;48.204;11.556;2022-12-18T03:57:16;97202.50;;;-6.62;100.00
57606;BME280;43430;48.204;11.556;2022-12-18T03:59:43;97204.56;;;-6.69;100.00
57606;BME280;43430;48.204;11.556;2022-12-18T04:02:09;97204.34;;;-6.64;100.00
57606;BME280;43430;48.204;11.556;2022-12-18T04:04:39;97206.63;;;-6.59;100.00
57606;BME280;43430;48.204;11.556;2022-12-18T04:07:05;97214.00;;;-6.53;100.00
57606;BME280;43430;48.204;11.556;2022-12-18T04:09:32;97210.13;;;-6.60;100.00
57606;BME280;43430;48.204;11.556;2022-12-18T04:11:59;97217.44;;;-6.54;100.00
57606;BME280;43430;48.204;11.556;2022-12-18T04:14:24;97205.38;;;-6.52;100.00
57606;BME280;43430;48.204;11.556;2022-12-18T04:16:49;97197.19;;;-6.59;100.00
57606;BME280;43430;48.204;11.556;2022-12-18T04:19:15;97194.97;;;-6.65;100.00
57606;BME280;43430;48.204;11.556;2022-12-18T04:21:40;97190.47;;;-6.61;100.00
57606;BME280;43430;48.204;11.556;2022-12-18T04:24:06;97200.50;;;-6.57;100.00
57606;BME280;43430;48.204;11.556;2022-12-18T04:26:31;97205.94;;;-6.47;100.00
57606;BME280;43430;48.204;11.556;2022-12-18T04:28:56;97217.44;;;-6.54;100.00
57606;BME280;43430;48.204;11.556;2022-12-18T04:31:22;97220.88;;;-6.54;100.00
57606;BME280;43430;48.204;11.556;2022-12-18T04:33:47;97214.16;;;-6.56;100.00
57606;BME280;43430;48.204;11.556;2022-12-18T04:36:13;97222.56;;;-6.54;100.00
57606;BME280;43430;48.204;11.556;2022-12-18T04:38:38;97216.44;;;-6.36;100.00
57606;BME280;43430;48.204;11.556;2022-12-18T04:41:04;97214.75;;;-6.37;100.00
57606;BME280;43430;48.204;11.556;2022-12-18T04:43:29;97220.69;;;-6.21;100.00
57606;BME280;43430;48.204;11.556;2022-12-18T04:46:04;97218.25;;;-6.38;100.00
57606;BME280;43430;48.204;11.556;2022-12-18T04:48:30;97225.41;;;-6.43;100.00
57606;BME280;43430;48.204;11.556;2022-12-18T04:50:55;97227.53;;;-6.51;100.00
57606;BME280;43430;48.204;11.556;2022-12-18T04:53:21;97232.78;;;-6.53;100.00
57606;BME280;43430;48.204;11.556;2022-12-18T04:55:46;97245.75;;;-6.56;100.00
57606;BME280;43430;48.204;11.556;2022-12-18T04:58:11;97244.25;;;-6.44;100.00
57606;BME280;43430;48.204;11.556;2022-12-18T05:00:37;97239.22;;;-6.46;100.00
57606;BME280;43430;48.204;11.556;2022-12-18T05:03:02;97254.88;;;-6.50;100.00
57606;BME280;43430;48.204;11.556;2022-12-18T05:05:28;97237.97;;;-6.54;100.00
57606;BME280;43430;48.204;11.556;2022-12-18T05:07:53;97238.13;;;-6.57;100.00
57606;BME280;43430;48.204;11.556;2022-12-18T05:10:18;97241.94;;;-6.49;100.00
57606;BME280;43430;48.204;11.556;2022-12-18T05:12:43;97252.53;;;-6.55;100.00
57606;BME280;43430;48.204;11.556;2022-12-18T05:15:27;97265.63;;;-6.59;100.00
57606;BME280;43430;48.204;11.556;2022-12-18T05:17:52;97253.72;;;-6.60;100.00
57606;BME280;43430;48.204;11.556;2022-12-18T05:20:17;97236.00;;;-6.49;100.00
57606;BME280;43430;48.204;11.556;2022-12-18T05:22:43;97231.03;;;-6.52;100.00
57606;BME280;43430;48.204;11.556;2022-12-18T05:25:09;97232.16;;;-6.42;100.00
57606;BME280;43430;48.204;11.556;2022-12-18T05:27:34;97242.44;;;-6.42;100.00
57606;BME280;43430;48.204;11.556;2022-12-18T05:29:59;97251.06;;;-6.43;100.00
57606;BME280;43430;48.204;11.556;2022-12-18T05:32:25;97257.25;;;-6.47;100.00
57606;BME280;43430;48.204;11.556;2022-12-18T05:34:50;97264.28;;;-6.51;100.00
57606;BME280;43430;48.204;11.556;2022-12-18T05:37:15;97259.16;;;-6.51;100.00
57606;BME280;43430;48.204;11.556;2022-12-18T05:39:42;97260.00;;;-6.50;100.00
57606;BME280;43430;48.204;11.556;2022-12-18T05:42:08;97252.69;;;-6.42;100.00
57606;BME280;43430;48.204;11.556;2022-12-18T05:44:33;97251.34;;;-6.33;100.00
57606;BME280;43430;48.204;11.556;2022-12-18T05:46:59;97249.53;;;-6.31;100.00
57606;BME280;43430;48.204;11.556;2022-12-18T05:49:24;97256.56;;;-6.35;100.00
57606;BME280;43430;48.204;11.556;2022-12-18T05:51:49;97261.53;;;-6.32;100.00
57606;BME280;43430;48.204;11.556;2022-12-18T05:54:15;97264.75;;;-6.28;100.00
57606;BME280;43430;48.204;11.556;2022-12-18T05:56:40;97270.53;;;-6.09;100.00
57606;BME280;43430;48.204;11.556;2022-12-18T05:59:05;97266.44;;;-6.13;100.00
57606;BME280;43430;48.204;11.556;2022-12-18T06:01:31;97272.00;;;-6.05;100.00
57606;BME280;43430;48.204;11.556;2022-12-18T06:03:56;97263.88;;;-6.13;100.00
57606;BME280;43430;48.204;11.556;2022-12-18T06:06:26;97273.91;;;-6.08;100.00
57606;BME280;43430;48.204;11.556;2022-12-18T06:08:53;97260.75;;;-6.18;100.00
57606;BME280;43430;48.204;11.556;2022-12-18T06:11:22;97261.19;;;-6.26;100.00
57606;BME280;43430;48.204;11.556;2022-12-18T06:13:50;97264.91;;;-6.15;100.00
57606;BME280;43430;48.204;11.556;2022-12-18T06:16:16;97271.19;;;-6.21;100.00
57606;BME280;43430;48.204;11.556;2022-12-18T06:18:41;97271.88;;;-6.33;100.00
57606;BME280;43430;48.204;11.556;2022-12-18T06:21:07;97268.59;;;-6.35;100.00
57606;BME280;43430;48.204;11.556;2022-12-18T06:23:33;97262.63;;;-6.36;100.00
57606;BME280;43430;48.204;11.556;2022-12-18T06:25:58;97271.22;;;-6.37;100.00
57606;BME280;43430;48.204;11.556;2022-12-18T06:28:23;97270.06;;;-6.47;100.00
57606;BME280;43430;48.204;11.556;2022-12-18T06:30:49;97278.53;;;-6.45;100.00
57606;BME280;43430;48.204;11.556;2022-12-18T06:33:15;97288.69;;;-6.43;100.00
57606;BME280;43430;48.204;11.556;2022-12-18T06:35:41;97285.47;;;-6.47;100.00
57606;BME280;43430;48.204;11.556;2022-12-18T06:38:07;97286.00;;;-6.56;100.00
57606;BME280;43430;48.204;11.556;2022-12-18T06:40:32;97286.16;;;-6.59;100.00
57606;BME280;43430;48.204;11.556;2022-12-18T06:42:57;97294.41;;;-6.54;100.00
57606;BME280;43430;48.204;11.556;2022-12-18T06:45:23;97293.75;;;-6.58;100.00
57606;BME280;43430;48.204;11.556;2022-12-18T06:47:49;97294.09;;;-6.48;100.00
57606;BME280;43430;48.204;11.556;2022-12-18T06:50:14;97302.38;;;-6.59;100.00
57606;BME280;43430;48.204;11.556;2022-12-18T06:52:40;97302.38;;;-6.59;100.00
57606;BME280;43430;48.204;11.556;2022-12-18T06:55:08;97304.50;;;-6.51;100.00
57606;BME280;43430;48.204;11.556;2022-12-18T06:57:34;97306.41;;;-6.39;100.00
57606;BME280;43430;48.204;11.556;2022-12-18T06:59:59;97312.53;;;-6.26;100.00
57606;BME280;43430;48.204;11.556;2022-12-18T07:02:25;97314.44;;;-6.29;100.00
57606;BME280;43430;48.204;11.556;2022-12-18T07:04:51;97324.88;;;-6.32;100.00
57606;BME280;43430;48.204;11.556;2022-12-18T07:07:17;97323.19;;;-6.17;100.00
57606;BME280;43430;48.204;11.556;2022-12-18T07:09:42;97320.53;;;-6.16;100.00
57606;BME280;43430;48.204;11.556;2022-12-18T07:12:07;97326.34;;;-6.12;100.00
57606;BME280;43430;48.204;11.556;2022-12-18T07:14:33;97316.84;;;-6.26;100.00
57606;BME280;43430;48.204;11.556;2022-12-18T07:16:59;97331.56;;;-6.30;100.00
57606;BME280;43430;48.204;11.556;2022-12-18T07:19:24;97336.78;;;-6.31;100.00
57606;BME280;43430;48.204;11.556;2022-12-18T07:21:50;97339.94;;;-6.42;100.00
57606;BME280;43430;48.204;11.556;2022-12-18T07:24:16;97341.75;;;-6.44;100.00
57606;BME280;43430;48.204;11.556;2022-12-18T07:26:41;97339.44;;;-6.33;100.00
57606;BME280;43430;48.204;11.556;2022-12-18T07:29:07;97343.56;;;-6.30;100.00
57606;BME280;43430;48.204;11.556;2022-12-18T07:31:32;97350.50;;;-6.16;100.00
57606;BME280;43430;48.204;11.556;2022-12-18T07:33:58;97337.94;;;-6.21;100.00
57606;BME280;43430;48.204;11.556;2022-12-18T07:36:23;97335.53;;;-6.24;100.00
57606;BME280;43430;48.204;11.556;2022-12-18T07:38:50;97336.88;;;-6.33;100.00
57606;BME280;43430;48.204;11.556;2022-12-18T07:41:17;97334.06;;;-6.44;100.00
57606;BME280;43430;48.204;11.556;2022-12-18T07:43:44;97327.84;;;-6.56;100.00
57606;BME280;43430;48.204;11.556;2022-12-18T07:46:10;97329.84;;;-6.45;100.00
57606;BME280;43430;48.204;11.556;2022-12-18T07:48:36;97334.41;;;-6.50;100.00
57606;BME280;43430;48.204;11.556;2022-12-18T07:51:04;97331.25;;;-6.55;100.00
57606;BME280;43430;48.204;11.556;2022-12-18T07:53:30;97343.91;;;-6.52;100.00
57606;BME280;43430;48.204;11.556;2022-12-18T07:56:01;97344.09;;;-6.39;100.00
57606;BME280;43430;48.204;11.556;2022-12-18T07:58:27;97342.75;;;-6.31;100.00
57606;BME280;43430;48.204;11.556;2022-12-18T08:00:52;97335.97;;;-6.48;100.00
57606;BME280;43430;48.204;11.556;2022-12-18T08:03:18;97345.81;;;-6.56;100.00
57606;BME280;43430;48.204;11.556;2022-12-18T08:05:44;97350.13;;;-6.56;100.00
57606;BME280;43430;48.204;11.556;2022-12-18T08:08:29;97349.72;;;-6.49;100.00
57606;BME280;43430;48.204;11.556;2022-12-18T08:10:56;97356.66;;;-6.51;100.00
57606;BME280;43430;48.204;11.556;2022-12-18T08:13:21;97361.38;;;-6.59;100.00
57606;BME280;43430;48.204;11.556;2022-12-18T08:15:55;97363.28;;;-6.62;100.00
57606;BME280;43430;48.204;11.556;2022-12-18T08:18:21;97366.19;;;-6.53;100.00
57606;BME280;43430;48.204;11.556;2022-12-18T08:20:46;97375.53;;;-6.36;100.00
57606;BME280;43430;48.204;11.556;2022-12-18T08:23:11;97367.25;;;-6.41;100.00
57606;BME280;43430;48.204;11.556;2022-12-18T08:25:37;97365.50;;;-6.40;100.00
57606;BME280;43430;48.204;11.556;2022-12-18T08:28:02;97365.19;;;-6.34;100.00
57606;BME280;43430;48.204;11.556;2022-12-18T08:30:28;97369.22;;;-6.30;100.00
57606;BME280;43430;48.204;11.556;2022-12-18T08:32:53;97362.28;;;-6.28;100.00
57606;BME280;43430;48.204;11.556;2022-12-18T08:35:19;97355.66;;;-6.16;100.00
57606;BME280;43430;48.204;11.556;2022-12-18T08:37:44;97365.84;;;-6.15;100.00
57606;BME280;43430;48.204;11.556;2022-12-18T08:40:10;97368.53;;;-6.02;100.00
57606;BME280;43430;48.204;11.556;2022-12-18T08:42:35;97364.25;;;-6.02;100.00
57606;BME280;43430;48.204;11.556;2022-12-18T08:45:19;97369.41;;;-6.02;100.00
57606;BME280;43430;48.204;11.556;2022-12-18T08:47:45;97363.78;;;-6.08;100.00
57606;BME280;43430;48.204;11.556;2022-12-18T08:50:10;97374.38;;;-6.14;100.00
57606;BME280;43430;48.204;11.556;2022-12-18T08:52:37;97373.78;;;-6.04;100.00
57606;BME280;43430;48.204;11.556;2022-12-18T08:55:02;97365.50;;;-6.09;100.00
57606;BME280;43430;48.204;11.556;2022-12-18T08:57:28;97367.91;;;-6.22;100.00
57606;BME280;43430;48.204;11.556;2022-12-18T08:59:53;97368.56;;;-6.18;100.00
57606;BME280;43430;48.204;11.556;2022-12-18T09:02:18;97379.00;;;-6.21;100.00
57606;BME280;43430;48.204;11.556;2022-12-18T09:04:46;97377.19;;;-6.19;100.00
57606;BME280;43430;48.204;11.556;2022-12-18T09:07:12;97376.34;;;-6.19;100.00
57606;BME280;43430;48.204;11.556;2022-12-18T09:09:37;97386.81;;;-6.23;100.00
57606;BME280;43430;48.204;11.556;2022-12-18T09:12:03;97383.00;;;-6.15;100.00
57606;BME280;43430;48.204;11.556;2022-12-18T09:14:28;97386.72;;;-6.05;100.00
57606;BME280;43430;48.204;11.556;2022-12-18T09:16:54;97388.75;;;-5.96;100.00
57606;BME280;43430;48.204;11.556;2022-12-18T09:19:19;97381.81;;;-6.10;100.00
57606;BME280;43430;48.204;11.556;2022-12-18T09:21:45;97380.91;;;-6.09;100.00
57606;BME280;43430;48.204;11.556;2022-12-18T09:24:16;97384.03;;;-6.04;100.00
57606;BME280;43430;48.204;11.556;2022-12-18T09:26:42;97376.00;;;-5.98;100.00
57606;BME280;43430;48.204;11.556;2022-12-18T09:29:08;97368.88;;;-5.92;100.00
57606;BME280;43430;48.204;11.556;2022-12-18T09:31:35;97368.31;;;-5.83;100.00
57606;BME280;43430;48.204;11.556;2022-12-18T09:34:00;97367.34;;;-5.81;100.00
57606;BME280;43430;48.204;11.556;2022-12-18T09:36:26;97367.34;;;-5.81;100.00
57606;BME280;43430;48.204;11.556;2022-12-18T09:38:51;97360.72;;;-5.85;100.00
57606;BME280;43430;48.204;11.556;2022-12-18T09:44:09;97356.91;;;-5.78;100.00
57606;BME280;43430;48.204;11.556;2022-12-18T09:46:44;97363.69;;;-5.77;100.00
57606;BME280;43430;48.204;11.556;2022-12-18T09:49:14;97362.31;;;-5.68;100.00
57606;BME280;43430;48.204;11.556;2022-12-18T09:51:50;97371.44;;;-5.78;100.00
57606;BME280;43430;48.204;11.556;2022-12-18T09:54:34;97361.53;;;-5.84;100.00
57606;BME280;43430;48.204;11.556;2022-12-18T09:57:01;97358.50;;;-5.91;100.00
57606;BME280;43430;48.204;11.556;2022-12-18T09:59:37;97354.84;;;-5.87;100.00
57606;BME280;43430;48.204;11.556;2022-12-18T10:04:39;97357.03;;;-5.95;100.00
57606;BME280;43430;48.204;11.556;2022-12-18T10:07:14;97351.59;;;-5.75;100.00
57606;BME280;43430;48.204;11.556;2022-12-18T10:09:53;97345.69;;;-5.77;100.00
57606;BME280;43430;48.204;11.556;2022-12-18T10:12:32;97341.53;;;-5.93;100.00
57606;BME280;43430;48.204;11.556;2022-12-18T10:15:39;97331.44;;;-5.82;100.00
57606;BME280;43430;48.204;11.556;2022-12-18T10:20:46;97335.97;;;-5.72;100.00
57606;BME280;43430;48.204;11.556;2022-12-18T10:26:07;97336.94;;;-5.58;100.00
57606;BME280;43430;48.204;11.556;2022-12-18T10:28:38;97333.25;;;-5.54;100.00
57606;BME280;43430;48.204;11.556;2022-12-18T10:31:18;97321.34;;;-5.55;100.00
57606;BME280;43430;48.204;11.556;2022-12-18T10:33:43;97307.53;;;-5.68;100.00
57606;BME280;43430;48.204;11.556;2022-12-18T10:36:09;97312.59;;;-5.67;100.00
57606;BME280;43430;48.204;11.556;2022-12-18T10:38:35;97308.13;;;-5.49;100.00
57606;BME280;43430;48.204;11.556;2022-12-18T10:41:04;97308.94;;;-5.63;100.00
57606;BME280;43430;48.204;11.556;2022-12-18T10:43:32;97309.75;;;-5.62;100.00
57606;BME280;43430;48.204;11.556;2022-12-18T10:51:24;97311.47;;;-5.47;100.00
57606;BME280;43430;48.204;11.556;2022-12-18T10:56:31;97308.50;;;-5.41;100.00
57606;BME280;43430;48.204;11.556;2022-12-18T10:59:01;97313.19;;;-5.47;100.00
57606;BME280;43430;48.204;11.556;2022-12-18T11:01:27;97309.13;;;-5.66;100.00
57606;BME280;43430;48.204;11.556;2022-12-18T11:06:20;97333.28;;;-5.84;100.00
57606;BME280;43430;48.204;11.556;2022-12-18T11:09:21;97338.66;;;-5.89;100.00
57606;BME280;43430;48.204;11.556;2022-12-18T11:11:55;97335.50;;;-5.78;100.00
57606;BME280;43430;48.204;11.556;2022-12-18T11:14:27;97333.53;;;-5.89;100.00
57606;BME280;43430;48.204;11.556;2022-12-18T11:16:55;97338.41;;;-5.99;100.00
57606;BME280;43430;48.204;11.556;2022-12-18T11:19:34;97339.81;;;-5.79;100.00
57606;BME280;43430;48.204;11.556;2022-12-18T11:22:24;97336.25;;;-5.76;100.00
57606;BME280;43430;48.204;11.556;2022-12-18T11:24:54;97342.25;;;-5.91;100.00
57606;BME280;43430;48.204;11.556;2022-12-18T11:27:20;97341.88;;;-6.00;100.00
57606;BME280;43430;48.204;11.556;2022-12-18T11:29:49;97335.56;;;-5.94;100.00
57606;BME280;43430;48.204;11.556;2022-12-18T11:41:28;97314.13;;;-5.79;100.00
57606;BME280;43430;48.204;11.556;2022-12-18T11:44:31;97312.34;;;-5.62;100.00
57606;BME280;43430;48.204;11.556;2022-12-18T11:49:36;97314.56;;;-5.56;100.00
57606;BME280;43430;48.204;11.556;2022-12-18T11:52:21;97309.22;;;-5.67;100.00
57606;BME280;43430;48.204;11.556;2022-12-18T11:54:51;97307.91;;;-5.75;100.00
57606;BME280;43430;48.204;11.556;2022-12-18T11:58:11;97307.69;;;-5.86;100.00
57606;BME280;43430;48.204;11.556;2022-12-18T12:00:35;97309.47;;;-6.02;100.00
57606;BME280;43430;48.204;11.556;2022-12-18T12:03:23;97306.38;;;-6.07;100.00
57606;BME280;43430;48.204;11.556;2022-12-18T12:14:39;97314.56;;;-6.16;100.00
57606;BME280;43430;48.204;11.556;2022-12-18T12:17:21;97301.66;;;-6.15;100.00
57606;BME280;43430;48.204;11.556;2022-12-18T12:20:08;97307.69;;;-6.16;100.00
57606;BME280;43430;48.204;11.556;2022-12-18T12:25:51;97293.53;;;-6.23;100.00
57606;BME280;43430;48.204;11.556;2022-12-18T12:34:19;97288.38;;;-6.07;100.00
57606;BME280;43430;48.204;11.556;2022-12-18T12:39:31;97282.00;;;-5.86;100.00
57606;BME280;43430;48.204;11.556;2022-12-18T12:41:58;97279.56;;;-5.73;100.00
57606;BME280;43430;48.204;11.556;2022-12-18T12:44:52;97284.88;;;-5.62;100.00
57606;BME280;43430;48.204;11.556;2022-12-18T12:47:30;97283.13;;;-5.76;100.00
57606;BME280;43430;48.204;11.556;2022-12-18T12:49:59;97274.94;;;-5.97;100.00
57606;BME280;43430;48.204;11.556;2022-12-18T12:52:49;97282.34;;;-6.06;100.00
57606;BME280;43430;48.204;11.556;2022-12-18T12:55:22;97278.28;;;-6.10;100.00
57606;BME280;43430;48.204;11.556;2022-12-18T12:58:05;97281.25;;;-6.02;100.00
57606;BME280;43430;48.204;11.556;2022-12-18T13:00:43;97291.50;;;-6.02;100.00
57606;BME280;43430;48.204;11.556;2022-12-18T13:03:33;97294.06;;;-6.02;100.00
57606;BME280;43430;48.204;11.556;2022-12-18T13:06:04;97287.78;;;-5.97;100.00
57606;BME280;43430;48.204;11.556;2022-12-18T13:08:55;97293.19;;;-6.01;100.00
57606;BME280;43430;48.204;11.556;2022-12-18T13:11:39;97288.94;;;-6.02;100.00
57606;BME280;43430;48.204;11.556;2022-12-18T13:14:37;97302.47;;;-5.99;100.00
57606;BME280;43430;48.204;11.556;2022-12-18T13:20:03;97304.44;;;-5.59;100.00
57606;BME280;43430;48.204;11.556;2022-12-18T13:22:33;97304.44;;;-5.59;100.00
57606;BME280;43430;48.204;11.556;2022-12-18T13:24:59;97301.34;;;-5.50;100.00
57606;BME280;43430;48.204;11.556;2022-12-18T13:40:57;97289.00;;;-5.74;100.00
57606;BME280;43430;48.204;11.556;2022-12-18T13:43:41;97295.75;;;-5.87;100.00
57606;BME280;43430;48.204;11.556;2022-12-18T13:49:02;97298.22;;;-5.85;100.00
57606;BME280;43430;48.204;11.556;2022-12-18T13:51:30;97296.91;;;-5.62;100.00
57606;BME280;43430;48.204;11.556;2022-12-18T13:56:43;97274.22;;;-5.84;100.00
57606;BME280;43430;48.204;11.556;2022-12-18T14:01:48;97276.16;;;-5.74;100.00
57606;BME280;43430;48.204;11.556;2022-12-18T14:04:23;97276.34;;;-5.77;100.00
57606;BME280;43430;48.204;11.556;2022-12-18T14:06:55;97278.94;;;-5.62;100.00
57606;BME280;43430;48.204;11.556;2022-12-18T14:09:25;97283.41;;;-5.80;100.00
57606;BME280;43430;48.204;11.556;2022-12-18T14:11:52;97290.19;;;-5.79;100.00
57606;BME280;43430;48.204;11.556;2022-12-18T14:14:41;97291.16;;;-5.96;100.00
57606;BME280;43430;48.204;11.556;2022-12-18T14:17:10;97287.22;;;-6.02;100.00
57606;BME280;43430;48.204;11.556;2022-12-18T14:19:36;97283.47;;;-5.96;100.00
57606;BME280;43430;48.204;11.556;2022-12-18T14:22:02;97282.75;;;-5.98;100.00
57606;BME280;43430;48.204;11.556;2022-12-18T14:24:28;97301.69;;;-5.70;100.00
57606;BME280;43430;48.204;11.556;2022-12-18T14:27:12;97305.22;;;-5.87;100.00
57606;BME280;43430;48.204;11.556;2022-12-18T14:29:44;97309.91;;;-5.94;100.00
57606;BME280;43430;48.204;11.556;2022-12-18T14:32:15;97306.41;;;-5.93;100.00
57606;BME280;43430;48.204;11.556;2022-12-18T14:34:48;97307.84;;;-5.89;100.00
57606;BME280;43430;48.204;11.556;2022-12-18T14:37:16;97307.69;;;-5.86;100.00
57606;BME280;43430;48.204;11.556;2022-12-18T14:39:52;97306.25;;;-5.76;100.00
57606;BME280;43430;48.204;11.556;2022-12-18T14:42:18;97298.88;;;-5.82;100.00